Arroyomolinos, Spain
Current Conditions -  °F | °C
As of 6:00 AM on Friday 28 Nov 2014 (Local Time) from LEGT Reporting Station
Moderate Rain Moderate Rain  
Wind Chill: 43°   Ceiling: 5000
Heat Index: 46°   Visibility: 6mi
Dew Point: 45°   Wind: 7mph
Humidity: 93%   Direction: 90°E
Pressure: 29.12"   Gusts: NA
Location:  40.27°N, 3.92°W
Report Text: LEGT 280500Z 09006KT 9999 RA SCT030 BKN050 08/07 Q0986
Loading
Personal Weather Stations






























Interactive Weather Map New forecast layout! Learn more

10-Day Weather Forecast

Advertisements
Track Severe Weather on mobile